sensor_id;sensor_type;location;lat;lon;timestamp;pressure;altitude;pressure_sealevel;temperature;humidity
12182;BME280;6154;51.550;12.138;2023-01-10T00:01:45;99802.94;;;10.83;60.51
12182;BME280;6154;51.550;12.138;2023-01-10T00:04:13;99802.84;;;10.85;60.95
12182;BME280;6154;51.550;12.138;2023-01-10T00:06:41;99796.81;;;10.96;60.51
12182;BME280;6154;51.550;12.138;2023-01-10T00:09:09;99797.44;;;10.99;60.81
12182;BME280;6154;51.550;12.138;2023-01-10T00:11:37;99804.88;;;11.07;60.42
12182;BME280;6154;51.550;12.138;2023-01-10T00:14:25;99801.28;;;11.08;60.65
12182;BME280;6154;51.550;12.138;2023-01-10T00:16:56;99813.06;;;11.16;60.35
12182;BME280;6154;51.550;12.138;2023-01-10T00:19:24;99810.00;;;11.22;60.31
12182;BME280;6154;51.550;12.138;2023-01-10T00:21:52;99818.16;;;11.19;60.97
12182;BME280;6154;51.550;12.138;2023-01-10T00:24:21;99819.84;;;11.20;60.90
12182;BME280;6154;51.550;12.138;2023-01-10T00:26:50;99831.94;;;11.25;61.07
12182;BME280;6154;51.550;12.138;2023-01-10T00:29:19;99835.13;;;11.30;60.63
12182;BME280;6154;51.550;12.138;2023-01-10T00:31:50;99833.13;;;11.33;60.32
12182;BME280;6154;51.550;12.138;2023-01-10T00:34:20;99830.66;;;11.30;60.44
12182;BME280;6154;51.550;12.138;2023-01-10T00:36:51;99845.19;;;11.37;60.14
12182;BME280;6154;51.550;12.138;2023-01-10T00:39:19;99843.72;;;11.33;60.52
12182;BME280;6154;51.550;12.138;2023-01-10T00:41:47;99850.28;;;11.40;60.06
12182;BME280;6154;51.550;12.138;2023-01-10T00:44:33;99850.50;;;11.37;60.23
12182;BME280;6154;51.550;12.138;2023-01-10T00:47:01;99856.19;;;11.31;60.46
12182;BME280;6154;51.550;12.138;2023-01-10T00:49:30;99853.25;;;11.36;60.08
12182;BME280;6154;51.550;12.138;2023-01-10T00:51:58;99872.94;;;11.32;60.03
12182;BME280;6154;51.550;12.138;2023-01-10T00:54:26;99876.53;;;11.31;59.99
12182;BME280;6154;51.550;12.138;2023-01-10T00:56:54;99869.97;;;11.23;60.05
12182;BME280;6154;51.550;12.138;2023-01-10T00:59:23;99879.16;;;11.18;59.95
12182;BME280;6154;51.550;12.138;2023-01-10T01:01:51;99883.09;;;11.12;60.16
12182;BME280;6154;51.550;12.138;2023-01-10T01:04:20;99887.59;;;11.10;60.06
12182;BME280;6154;51.550;12.138;2023-01-10T01:06:50;99897.00;;;11.02;60.41
12182;BME280;6154;51.550;12.138;2023-01-10T01:09:18;99899.56;;;11.03;60.11
12182;BME280;6154;51.550;12.138;2023-01-10T01:11:46;99918.69;;;10.94;60.40
12182;BME280;6154;51.550;12.138;2023-01-10T01:14:15;99920.69;;;10.90;60.77
12182;BME280;6154;51.550;12.138;2023-01-10T01:16:43;99921.03;;;10.99;60.31
12182;BME280;6154;51.550;12.138;2023-01-10T01:19:11;99928.59;;;11.05;60.20
12182;BME280;6154;51.550;12.138;2023-01-10T01:21:39;99930.09;;;11.09;60.09
12182;BME280;6154;51.550;12.138;2023-01-10T01:24:09;99938.78;;;11.11;59.98
12182;BME280;6154;51.550;12.138;2023-01-10T01:26:37;99934.84;;;11.04;60.45
12182;BME280;6154;51.550;12.138;2023-01-10T01:29:06;99928.59;;;11.05;60.33
12182;BME280;6154;51.550;12.138;2023-01-10T01:31:34;99934.84;;;11.04;60.02
12182;BME280;6154;51.550;12.138;2023-01-10T01:34:02;99942.13;;;11.00;60.03
12182;BME280;6154;51.550;12.138;2023-01-10T01:36:30;99945.72;;;10.99;59.94
12182;BME280;6154;51.550;12.138;2023-01-10T01:38:58;99956.72;;;10.93;59.97
12182;BME280;6154;51.550;12.138;2023-01-10T01:41:28;99954.13;;;10.91;60.11
12182;BME280;6154;51.550;12.138;2023-01-10T01:44:15;99967.38;;;10.91;59.99
12182;BME280;6154;51.550;12.138;2023-01-10T01:46:45;99967.38;;;10.91;60.05
12182;BME280;6154;51.550;12.138;2023-01-10T01:49:19;99964.72;;;10.91;60.06
12182;BME280;6154;51.550;12.138;2023-01-10T01:51:52;99972.59;;;10.93;59.79
12182;BME280;6154;51.550;12.138;2023-01-10T01:54:24;99970.03;;;10.91;59.64
12182;BME280;6154;51.550;12.138;2023-01-10T01:56:58;99972.13;;;10.86;59.56
12182;BME280;6154;51.550;12.138;2023-01-10T01:59:31;99980.34;;;10.82;59.56
12182;BME280;6154;51.550;12.138;2023-01-10T02:02:02;99991.13;;;10.79;59.58
12182;BME280;6154;51.550;12.138;2023-01-10T02:04:38;99988.78;;;10.74;59.82
12182;BME280;6154;51.550;12.138;2023-01-10T02:07:09;99993.97;;;10.76;59.82
12182;BME280;6154;51.550;12.138;2023-01-10T02:09:41;99992.19;;;10.76;59.76
12182;BME280;6154;51.550;12.138;2023-01-10T02:12:14;99992.75;;;10.67;60.34
12182;BME280;6154;51.550;12.138;2023-01-10T02:14:43;99998.44;;;10.75;60.46
12182;BME280;6154;51.550;12.138;2023-01-10T02:17:12;99995.78;;;10.75;60.36
12182;BME280;6154;51.550;12.138;2023-01-10T02:19:49;100003.91;;;10.72;60.61
12182;BME280;6154;51.550;12.138;2023-01-10T02:32:11;100017.34;;;10.83;60.86
12182;BME280;6154;51.550;12.138;2023-01-10T02:34:55;100025.75;;;10.76;60.55
12182;BME280;6154;51.550;12.138;2023-01-10T02:37:34;100023.94;;;10.76;60.23
12182;BME280;6154;51.550;12.138;2023-01-10T02:40:11;100028.88;;;10.68;60.33
12182;BME280;6154;51.550;12.138;2023-01-10T02:42:45;100033.31;;;10.68;60.01
12182;BME280;6154;51.550;12.138;2023-01-10T02:45:16;100038.13;;;10.61;59.97
12182;BME280;6154;51.550;12.138;2023-01-10T02:47:47;100037.37;;;10.59;59.88
12182;BME280;6154;51.550;12.138;2023-01-10T02:50:29;100047.50;;;10.52;59.93
12182;BME280;6154;51.550;12.138;2023-01-10T02:52:59;100048.50;;;10.50;60.03
12182;BME280;6154;51.550;12.138;2023-01-10T02:55:37;100049.06;;;10.41;60.05
12182;BME280;6154;51.550;12.138;2023-01-10T02:58:19;100056.63;;;10.32;60.42
12182;BME280;6154;51.550;12.138;2023-01-10T03:00:57;100061.72;;;10.35;60.69
12182;BME280;6154;51.550;12.138;2023-01-10T03:03:38;100060.87;;;10.35;60.47
12182;BME280;6154;51.550;12.138;2023-01-10T03:06:19;100059.09;;;10.35;60.60
12182;BME280;6154;51.550;12.138;2023-01-10T03:08:53;100055.59;;;10.35;60.47
12182;BME280;6154;51.550;12.138;2023-01-10T03:11:28;100059.34;;;10.31;60.53
12182;BME280;6154;51.550;12.138;2023-01-10T03:14:13;100053.78;;;10.35;60.18
12182;BME280;6154;51.550;12.138;2023-01-10T03:16:46;100051.50;;;10.29;60.36
12182;BME280;6154;51.550;12.138;2023-01-10T03:19:19;100066.81;;;10.24;60.25
12182;BME280;6154;51.550;12.138;2023-01-10T03:21:50;100072.31;;;10.20;60.24
12182;BME280;6154;51.550;12.138;2023-01-10T03:24:24;100070.63;;;10.19;60.14
12182;BME280;6154;51.550;12.138;2023-01-10T03:26:56;100077.59;;;10.20;60.25
12182;BME280;6154;51.550;12.138;2023-01-10T03:29:28;100091.56;;;10.23;60.36
12182;BME280;6154;51.550;12.138;2023-01-10T03:32:02;100093.16;;;10.26;60.49
12182;BME280;6154;51.550;12.138;2023-01-10T03:34:33;100095.63;;;10.29;60.63
12182;BME280;6154;51.550;12.138;2023-01-10T03:37:08;100106.78;;;10.34;60.55
12182;BME280;6154;51.550;12.138;2023-01-10T03:39:45;100108.28;;;10.38;60.59
12182;BME280;6154;51.550;12.138;2023-01-10T03:42:22;100111.53;;;10.43;60.56
12182;BME280;6154;51.550;12.138;2023-01-10T03:44:56;100123.72;;;10.46;60.79
12182;BME280;6154;51.550;12.138;2023-01-10T03:47:31;100129.66;;;10.49;60.75
12182;BME280;6154;51.550;12.138;2023-01-10T03:50:05;100135.66;;;10.53;60.94
12182;BME280;6154;51.550;12.138;2023-01-10T03:52:34;100142.53;;;10.55;60.84
12182;BME280;6154;51.550;12.138;2023-01-10T03:55:05;100146.78;;;10.58;60.94
12182;BME280;6154;51.550;12.138;2023-01-10T03:57:34;100155.31;;;10.63;60.85
12182;BME280;6154;51.550;12.138;2023-01-10T04:00:03;100151.44;;;10.69;60.54
12182;BME280;6154;51.550;12.138;2023-01-10T04:02:32;100158.53;;;10.68;60.65
12182;BME280;6154;51.550;12.138;2023-01-10T04:05:00;100163.72;;;10.70;60.75
12182;BME280;6154;51.550;12.138;2023-01-10T04:07:29;100170.47;;;10.75;60.42
12182;BME280;6154;51.550;12.138;2023-01-10T04:09:58;100172.25;;;10.75;60.78
12182;BME280;6154;51.550;12.138;2023-01-10T04:12:26;100184.09;;;10.83;60.76
12182;BME280;6154;51.550;12.138;2023-01-10T04:14:54;100191.84;;;10.86;60.90
12182;BME280;6154;51.550;12.138;2023-01-10T04:17:22;100197.88;;;10.88;61.19
12182;BME280;6154;51.550;12.138;2023-01-10T04:19:50;100199.59;;;10.89;61.40
12182;BME280;6154;51.550;12.138;2023-01-10T04:22:18;100210.88;;;10.93;61.54
12182;BME280;6154;51.550;12.138;2023-01-10T04:24:48;100213.87;;;11.01;61.22
12182;BME280;6154;51.550;12.138;2023-01-10T04:27:17;100218.53;;;10.98;61.74
12182;BME280;6154;51.550;12.138;2023-01-10T04:29:46;100220.31;;;10.97;61.87
12182;BME280;6154;51.550;12.138;2023-01-10T04:32:14;100224.66;;;10.98;62.15
12182;BME280;6154;51.550;12.138;2023-01-10T04:34:42;100230.84;;;11.13;61.45
12182;BME280;6154;51.550;12.138;2023-01-10T04:37:11;100239.56;;;11.15;61.73
12182;BME280;6154;51.550;12.138;2023-01-10T04:39:39;100247.88;;;11.23;61.38
12182;BME280;6154;51.550;12.138;2023-01-10T04:42:08;100246.75;;;11.13;61.75
12182;BME280;6154;51.550;12.138;2023-01-10T04:44:36;100246.75;;;11.13;62.31
12182;BME280;6154;51.550;12.138;2023-01-10T04:47:04;100258.28;;;11.26;61.65
12182;BME280;6154;51.550;12.138;2023-01-10T04:49:32;100258.84;;;11.31;61.38
12182;BME280;6154;51.550;12.138;2023-01-10T04:52:01;100263.38;;;11.29;61.40
12182;BME280;6154;51.550;12.138;2023-01-10T04:54:29;100267.44;;;11.20;62.01
12182;BME280;6154;51.550;12.138;2023-01-10T04:56:57;100273.34;;;11.40;61.46
12182;BME280;6154;51.550;12.138;2023-01-10T04:59:27;100284.31;;;11.34;61.72
12182;BME280;6154;51.550;12.138;2023-01-10T05:01:55;100291.53;;;11.46;61.26
12182;BME280;6154;51.550;12.138;2023-01-10T05:04:24;100288.22;;;11.42;61.49
12182;BME280;6154;51.550;12.138;2023-01-10T05:06:52;100292.94;;;11.51;61.17
12182;BME280;6154;51.550;12.138;2023-01-10T05:09:20;100294.91;;;11.48;61.37
12182;BME280;6154;51.550;12.138;2023-01-10T05:11:48;100305.72;;;11.59;60.90
12182;BME280;6154;51.550;12.138;2023-01-10T05:14:17;100306.31;;;11.64;60.92
12182;BME280;6154;51.550;12.138;2023-01-10T05:16:46;100315.97;;;11.65;60.75
12182;BME280;6154;51.550;12.138;2023-01-10T05:19:14;100315.00;;;11.66;60.62
12182;BME280;6154;51.550;12.138;2023-01-10T05:21:42;100324.00;;;11.64;60.93
12182;BME280;6154;51.550;12.138;2023-01-10T05:24:11;100326.47;;;11.52;61.53
12182;BME280;6154;51.550;12.138;2023-01-10T05:26:39;100333.56;;;11.66;61.02
12182;BME280;6154;51.550;12.138;2023-01-10T05:29:08;100343.28;;;11.51;61.72
12182;BME280;6154;51.550;12.138;2023-01-10T05:31:37;100348.63;;;11.66;61.20
12182;BME280;6154;51.550;12.138;2023-01-10T05:34:08;100354.66;;;11.68;61.06
12182;BME280;6154;51.550;12.138;2023-01-10T05:36:38;100363.28;;;11.71;60.89
12182;BME280;6154;51.550;12.138;2023-01-10T05:39:06;100362.34;;;11.72;60.88
12182;BME280;6154;51.550;12.138;2023-01-10T05:41:34;100365.16;;;11.69;61.12
12182;BME280;6154;51.550;12.138;2023-01-10T05:44:02;100372.37;;;11.67;61.25
12182;BME280;6154;51.550;12.138;2023-01-10T05:46:30;100374.16;;;11.52;61.51
12182;BME280;6154;51.550;12.138;2023-01-10T05:48:58;100378.72;;;11.65;61.09
12182;BME280;6154;51.550;12.138;2023-01-10T05:51:28;100382.31;;;11.64;61.18
12182;BME280;6154;51.550;12.138;2023-01-10T05:53:56;100384.03;;;11.65;61.08
12182;BME280;6154;51.550;12.138;2023-01-10T05:56:25;100386.09;;;11.60;61.43
12182;BME280;6154;51.550;12.138;2023-01-10T05:58:53;100397.38;;;11.63;61.27
12182;BME280;6154;51.550;12.138;2023-01-10T06:01:33;100404.28;;;11.66;61.15
12182;BME280;6154;51.550;12.138;2023-01-10T06:04:02;100419.91;;;11.70;61.17
12182;BME280;6154;51.550;12.138;2023-01-10T06:06:31;100422.09;;;11.78;60.94
12182;BME280;6154;51.550;12.138;2023-01-10T06:09:00;100429.09;;;11.65;61.74
12182;BME280;6154;51.550;12.138;2023-01-10T06:11:28;100432.84;;;11.91;61.34
12182;BME280;6154;51.550;12.138;2023-01-10T06:13:56;100436.53;;;12.02;60.80
12182;BME280;6154;51.550;12.138;2023-01-10T06:16:25;100436.53;;;12.02;60.83
12182;BME280;6154;51.550;12.138;2023-01-10T06:18:53;100436.28;;;11.93;61.30
12182;BME280;6154;51.550;12.138;2023-01-10T06:21:21;100434.66;;;12.04;60.75
12182;BME280;6154;51.550;12.138;2023-01-10T06:23:51;100437.13;;;12.07;60.39
12182;BME280;6154;51.550;12.138;2023-01-10T06:26:19;100443.56;;;12.03;60.67
12182;BME280;6154;51.550;12.138;2023-01-10T06:28:47;100453.41;;;12.01;60.84
12182;BME280;6154;51.550;12.138;2023-01-10T06:31:15;100459.50;;;12.03;60.62
12182;BME280;6154;51.550;12.138;2023-01-10T06:33:43;100469.41;;;12.00;60.76
12182;BME280;6154;51.550;12.138;2023-01-10T06:36:11;100470.81;;;11.91;61.21
12182;BME280;6154;51.550;12.138;2023-01-10T06:38:39;100484.47;;;11.99;60.91
12182;BME280;6154;51.550;12.138;2023-01-10T06:41:09;100478.00;;;11.89;61.30
12182;BME280;6154;51.550;12.138;2023-01-10T06:43:41;100491.28;;;11.89;61.28
12182;BME280;6154;51.550;12.138;2023-01-10T06:46:11;100504.00;;;11.98;60.94
12182;BME280;6154;51.550;12.138;2023-01-10T06:48:39;100508.25;;;12.01;60.74
12182;BME280;6154;51.550;12.138;2023-01-10T06:51:09;100512.53;;;12.03;60.59
12182;BME280;6154;51.550;12.138;2023-01-10T06:53:38;100518.59;;;12.05;60.54
12182;BME280;6154;51.550;12.138;2023-01-10T06:56:07;100523.16;;;12.03;60.76
12182;BME280;6154;51.550;12.138;2023-01-10T06:58:37;100529.03;;;12.08;60.67
12182;BME280;6154;51.550;12.138;2023-01-10T07:01:11;100524.31;;;12.14;60.37
12182;BME280;6154;51.550;12.138;2023-01-10T07:03:39;100536.13;;;12.08;60.60
12182;BME280;6154;51.550;12.138;2023-01-10T07:06:08;100532.72;;;12.06;60.71
12182;BME280;6154;51.550;12.138;2023-01-10T07:08:37;100542.47;;;12.05;60.74
12182;BME280;6154;51.550;12.138;2023-01-10T07:11:07;100543.22;;;12.07;60.67
12182;BME280;6154;51.550;12.138;2023-01-10T07:13:38;100550.25;;;12.08;60.67
12182;BME280;6154;51.550;12.138;2023-01-10T07:16:09;100550.84;;;12.14;60.33
12182;BME280;6154;51.550;12.138;2023-01-10T07:18:39;100552.53;;;12.15;60.38
12182;BME280;6154;51.550;12.138;2023-01-10T07:21:09;100555.09;;;12.16;60.29
12182;BME280;6154;51.550;12.138;2023-01-10T07:23:37;100563.16;;;12.15;60.39
12182;BME280;6154;51.550;12.138;2023-01-10T07:26:07;100563.81;;;12.18;60.27
12182;BME280;6154;51.550;12.138;2023-01-10T07:28:37;100569.03;;;12.20;60.20
12182;BME280;6154;51.550;12.138;2023-01-10T07:31:06;100587.44;;;12.23;60.25
12182;BME280;6154;51.550;12.138;2023-01-10T07:33:34;100588.28;;;12.23;60.14
12182;BME280;6154;51.550;12.138;2023-01-10T07:36:03;100598.06;;;12.23;60.22
12182;BME280;6154;51.550;12.138;2023-01-10T07:38:31;100602.41;;;12.24;60.11
12182;BME280;6154;51.550;12.138;2023-01-10T07:41:00;100606.75;;;12.25;60.17
12182;BME280;6154;51.550;12.138;2023-01-10T07:43:29;100612.22;;;12.22;60.22
12182;BME280;6154;51.550;12.138;2023-01-10T07:45:59;100619.28;;;12.23;60.20
12182;BME280;6154;51.550;12.138;2023-01-10T07:48:28;100624.59;;;12.23;60.22
12182;BME280;6154;51.550;12.138;2023-01-10T07:50:57;100627.13;;;12.24;60.22
12182;BME280;6154;51.550;12.138;2023-01-10T07:53:27;100632.16;;;12.29;59.94
12182;BME280;6154;51.550;12.138;2023-01-10T07:55:58;100638.06;;;12.34;59.97
12182;BME280;6154;51.550;12.138;2023-01-10T07:58:27;100642.25;;;12.38;59.86
12182;BME280;6154;51.550;12.138;2023-01-10T08:00:56;100645.66;;;12.40;59.80
12182;BME280;6154;51.550;12.138;2023-01-10T08:03:26;100652.59;;;12.43;59.81
12182;BME280;6154;51.550;12.138;2023-01-10T08:05:59;100653.34;;;12.45;59.78
12182;BME280;6154;51.550;12.138;2023-01-10T08:08:29;100650.87;;;12.42;59.96
12182;BME280;6154;51.550;12.138;2023-01-10T08:10:57;100652.50;;;12.44;59.93
12182;BME280;6154;51.550;12.138;2023-01-10T08:13:28;100659.44;;;12.47;59.98
12182;BME280;6154;51.550;12.138;2023-01-10T08:15:57;100654.13;;;12.47;60.13
12182;BME280;6154;51.550;12.138;2023-01-10T08:18:26;100654.37;;;12.42;60.26
12182;BME280;6154;51.550;12.138;2023-01-10T08:20:55;100660.47;;;12.44;60.25
12182;BME280;6154;51.550;12.138;2023-01-10T08:23:23;100665.03;;;12.56;59.96
12182;BME280;6154;51.550;12.138;2023-01-10T08:25:51;100665.72;;;12.60;59.88
12182;BME280;6154;51.550;12.138;2023-01-10T08:28:20;100682.31;;;12.63;59.88
12182;BME280;6154;51.550;12.138;2023-01-10T08:30:48;100692.34;;;12.58;60.01
12182;BME280;6154;51.550;12.138;2023-01-10T08:33:22;100692.94;;;12.63;59.86
12182;BME280;6154;51.550;12.138;2023-01-10T08:35:51;100698.78;;;12.54;60.10
12182;BME280;6154;51.550;12.138;2023-01-10T08:38:19;100700.72;;;12.66;59.89
12182;BME280;6154;51.550;12.138;2023-01-10T08:40:48;100703.88;;;12.73;59.81
12182;BME280;6154;51.550;12.138;2023-01-10T08:43:16;100697.41;;;12.63;59.85
12182;BME280;6154;51.550;12.138;2023-01-10T08:45:44;100697.34;;;12.79;59.70
12182;BME280;6154;51.550;12.138;2023-01-10T08:48:13;100708.63;;;12.82;59.65
12182;BME280;6154;51.550;12.138;2023-01-10T08:50:41;100710.59;;;12.79;59.46
12182;BME280;6154;51.550;12.138;2023-01-10T08:53:11;100716.50;;;12.84;59.46
12182;BME280;6154;51.550;12.138;2023-01-10T08:55:39;100725.44;;;12.83;59.36
12182;BME280;6154;51.550;12.138;2023-01-10T08:58:08;100724.09;;;12.76;59.56
12182;BME280;6154;51.550;12.138;2023-01-10T09:00:36;100725.81;;;12.91;59.35
12182;BME280;6154;51.550;12.138;2023-01-10T09:03:05;100721.59;;;13.03;59.13
12182;BME280;6154;51.550;12.138;2023-01-10T09:05:33;100729.47;;;13.04;59.11
12182;BME280;6154;51.550;12.138;2023-01-10T09:08:02;100729.06;;;12.96;59.06
12182;BME280;6154;51.550;12.138;2023-01-10T09:10:32;100737.53;;;13.03;58.99
12182;BME280;6154;51.550;12.138;2023-01-10T09:13:01;100740.19;;;13.17;59.04
12182;BME280;6154;51.550;12.138;2023-01-10T09:15:33;100734.38;;;13.10;58.61
12182;BME280;6154;51.550;12.138;2023-01-10T09:18:03;100745.87;;;13.11;58.62
12182;BME280;6154;51.550;12.138;2023-01-10T09:20:33;100746.88;;;13.24;58.65
12182;BME280;6154;51.550;12.138;2023-01-10T09:23:04;100748.84;;;13.20;58.52
12182;BME280;6154;51.550;12.138;2023-01-10T09:25:34;100750.59;;;13.36;58.68
12182;BME280;6154;51.550;12.138;2023-01-10T09:28:03;100756.84;;;13.35;58.23
12182;BME280;6154;51.550;12.138;2023-01-10T09:30:32;100756.00;;;13.48;58.33
12182;BME280;6154;51.550;12.138;2023-01-10T09:33:00;100752.13;;;13.54;58.29
12182;BME280;6154;51.550;12.138;2023-01-10T09:35:30;100758.38;;;13.53;58.24
12182;BME280;6154;51.550;12.138;2023-01-10T09:37:59;100765.59;;;13.65;58.08
12182;BME280;6154;51.550;12.138;2023-01-10T09:40:42;100766.16;;;13.56;57.58
12182;BME280;6154;51.550;12.138;2023-01-10T09:43:16;100764.72;;;13.79;57.83
12182;BME280;6154;51.550;12.138;2023-01-10T09:45:55;100767.59;;;13.76;58.02
12182;BME280;6154;51.550;12.138;2023-01-10T09:48:36;100768.06;;;13.68;57.80
12182;BME280;6154;51.550;12.138;2023-01-10T09:51:16;100771.28;;;13.88;57.83
12182;BME280;6154;51.550;12.138;2023-01-10T09:53:51;100779.25;;;13.88;57.63
12182;BME280;6154;51.550;12.138;2023-01-10T09:56:38;100788.38;;;13.69;57.07
12182;BME280;6154;51.550;12.138;2023-01-10T09:59:11;100789.72;;;13.76;57.94
12182;BME280;6154;51.550;12.138;2023-01-10T10:01:41;100794.75;;;13.81;57.63
12182;BME280;6154;51.550;12.138;2023-01-10T10:04:18;100797.31;;;13.97;57.86
12182;BME280;6154;51.550;12.138;2023-01-10T10:06:49;100799.19;;;13.80;57.20
12182;BME280;6154;51.550;12.138;2023-01-10T10:09:24;100804.13;;;13.72;57.39
12182;BME280;6154;51.550;12.138;2023-01-10T10:12:04;100802.44;;;13.57;56.82
12182;BME280;6154;51.550;12.138;2023-01-10T10:14:43;100808.91;;;13.67;56.89
12182;BME280;6154;51.550;12.138;2023-01-10T10:17:36;100811.25;;;13.72;56.98
12182;BME280;6154;51.550;12.138;2023-01-10T10:20:28;100813.28;;;13.68;56.86
12182;BME280;6154;51.550;12.138;2023-01-10T10:23:14;100798.34;;;13.80;56.64
12182;BME280;6154;51.550;12.138;2023-01-10T10:25:54;100803.66;;;13.51;57.39
12182;BME280;6154;51.550;12.138;2023-01-10T10:28:38;100799.19;;;13.80;57.39
12182;BME280;6154;51.550;12.138;2023-01-10T10:31:30;100790.09;;;13.85;57.48
12182;BME280;6154;51.550;12.138;2023-01-10T10:34:07;100791.06;;;13.84;56.98
12182;BME280;6154;51.550;12.138;2023-01-10T10:36:42;100779.06;;;13.91;57.31
12182;BME280;6154;51.550;12.138;2023-01-10T10:39:15;100766.50;;;13.93;57.50
12182;BME280;6154;51.550;12.138;2023-01-10T10:41:47;100757.66;;;14.06;57.43
12182;BME280;6154;51.550;12.138;2023-01-10T10:44:30;100771.72;;;14.08;57.07
12182;BME280;6154;51.550;12.138;2023-01-10T10:47:00;100773.16;;;14.00;56.54
12182;BME280;6154;51.550;12.138;2023-01-10T10:49:36;100777.31;;;14.18;57.09
12182;BME280;6154;51.550;12.138;2023-01-10T10:52:13;100778.63;;;14.25;56.47
12182;BME280;6154;51.550;12.138;2023-01-10T10:54:44;100772.97;;;14.30;56.67
12182;BME280;6154;51.550;12.138;2023-01-10T10:57:14;100765.09;;;14.28;56.61
12182;BME280;6154;51.550;12.138;2023-01-10T10:59:46;100784.59;;;14.29;56.79
12182;BME280;6154;51.550;12.138;2023-01-10T11:02:21;100794.00;;;14.34;56.47
12182;BME280;6154;51.550;12.138;2023-01-10T11:04:52;100786.28;;;14.44;56.20
12182;BME280;6154;51.550;12.138;2023-01-10T11:07:21;100781.97;;;14.56;56.70
12182;BME280;6154;51.550;12.138;2023-01-10T11:09:50;100786.69;;;14.65;56.70
12182;BME280;6154;51.550;12.138;2023-01-10T11:12:27;100778.28;;;14.71;56.54
12182;BME280;6154;51.550;12.138;2023-01-10T11:14:57;100786.44;;;14.55;55.70
12182;BME280;6154;51.550;12.138;2023-01-10T11:17:29;100785.91;;;14.63;55.95
12182;BME280;6154;51.550;12.138;2023-01-10T11:20:00;100791.88;;;14.54;55.09
12182;BME280;6154;51.550;12.138;2023-01-10T11:22:31;100803.94;;;14.59;56.27
12182;BME280;6154;51.550;12.138;2023-01-10T11:25:01;100801.75;;;14.52;56.08
12182;BME280;6154;51.550;12.138;2023-01-10T11:27:32;100800.72;;;14.54;55.76
12182;BME280;6154;51.550;12.138;2023-01-10T11:30:06;100797.62;;;14.60;55.83
12182;BME280;6154;51.550;12.138;2023-01-10T11:32:38;100801.69;;;14.39;54.44
12182;BME280;6154;51.550;12.138;2023-01-10T11:35:16;100810.09;;;14.60;55.94
12182;BME280;6154;51.550;12.138;2023-01-10T11:37:58;100809.66;;;14.80;55.65
12182;BME280;6154;51.550;12.138;2023-01-10T11:40:27;100807.47;;;14.73;54.37
12182;BME280;6154;51.550;12.138;2023-01-10T11:42:57;100805.06;;;14.82;55.48
12182;BME280;6154;51.550;12.138;2023-01-10T11:45:29;100807.78;;;14.95;55.60
12182;BME280;6154;51.550;12.138;2023-01-10T11:48:05;100809.28;;;14.72;54.51
12182;BME280;6154;51.550;12.138;2023-01-10T11:50:36;100814.22;;;14.78;54.49
12182;BME280;6154;51.550;12.138;2023-01-10T11:53:27;100813.75;;;14.72;54.57
12182;BME280;6154;51.550;12.138;2023-01-10T11:55:57;100818.44;;;14.68;53.25
12182;BME280;6154;51.550;12.138;2023-01-10T11:58:29;100824.03;;;14.78;55.11
12182;BME280;6154;51.550;12.138;2023-01-10T12:01:00;100828.72;;;14.74;55.33
12182;BME280;6154;51.550;12.138;2023-01-10T12:03:32;100827.16;;;14.57;55.74
12182;BME280;6154;51.550;12.138;2023-01-10T12:06:05;100826.87;;;14.48;55.35
12182;BME280;6154;51.550;12.138;2023-01-10T12:08:36;100826.91;;;14.33;54.86
12182;BME280;6154;51.550;12.138;2023-01-10T12:11:05;100832.63;;;14.27;55.50
12182;BME280;6154;51.550;12.138;2023-01-10T12:13:45;100827.37;;;14.26;55.84
12182;BME280;6154;51.550;12.138;2023-01-10T12:16:17;100825.59;;;14.26;55.13
12182;BME280;6154;51.550;12.138;2023-01-10T12:18:46;100832.03;;;14.22;56.04
12182;BME280;6154;51.550;12.138;2023-01-10T12:21:18;100834.53;;;14.25;55.94
12182;BME280;6154;51.550;12.138;2023-01-10T12:23:50;100825.41;;;14.15;55.46
12182;BME280;6154;51.550;12.138;2023-01-10T12:26:18;100819.41;;;14.26;55.29
12182;BME280;6154;51.550;12.138;2023-01-10T12:28:49;100832.66;;;14.13;54.96
12182;BME280;6154;51.550;12.138;2023-01-10T12:31:21;100833.94;;;14.20;55.52
12182;BME280;6154;51.550;12.138;2023-01-10T12:33:53;100838.53;;;14.18;55.28
12182;BME280;6154;51.550;12.138;2023-01-10T12:36:31;100843.19;;;14.00;55.80
12182;BME280;6154;51.550;12.138;2023-01-10T12:39:07;100850.41;;;13.98;54.51
12182;BME280;6154;51.550;12.138;2023-01-10T12:41:48;100846.87;;;14.12;55.46
12182;BME280;6154;51.550;12.138;2023-01-10T12:44:36;100852.78;;;13.89;54.86
12182;BME280;6154;51.550;12.138;2023-01-10T12:47:16;100857.91;;;13.92;55.17
12182;BME280;6154;51.550;12.138;2023-01-10T12:49:49;100850.31;;;14.00;55.54
12182;BME280;6154;51.550;12.138;2023-01-10T12:52:29;100854.41;;;13.91;55.14
12182;BME280;6154;51.550;12.138;2023-01-10T12:54:59;100852.50;;;14.07;55.39
12182;BME280;6154;51.550;12.138;2023-01-10T12:57:31;100848.62;;;14.13;55.71
12182;BME280;6154;51.550;12.138;2023-01-10T13:00:03;100851.63;;;13.93;54.78
12182;BME280;6154;51.550;12.138;2023-01-10T13:02:37;100851.63;;;13.93;54.27
12182;BME280;6154;51.550;12.138;2023-01-10T13:05:14;100852.59;;;14.06;55.34
12182;BME280;6154;51.550;12.138;2023-01-10T13:07:45;100856.88;;;14.08;55.01
12182;BME280;6154;51.550;12.138;2023-01-10T13:10:17;100857.63;;;14.10;55.84
12182;BME280;6154;51.550;12.138;2023-01-10T13:12:52;100861.72;;;14.16;55.72
12182;BME280;6154;51.550;12.138;2023-01-10T13:15:27;100859.63;;;14.21;55.51
12182;BME280;6154;51.550;12.138;2023-01-10T13:18:01;100856.69;;;14.26;55.49
12182;BME280;6154;51.550;12.138;2023-01-10T13:20:39;100855.94;;;14.24;55.54
12182;BME280;6154;51.550;12.138;2023-01-10T13:23:24;100861.72;;;14.16;54.70
12182;BME280;6154;51.550;12.138;2023-01-10T13:25:58;100853.56;;;13.76;54.82